Аэропорт: Ужгород. Ужгород

ICAO: UKLU

METAR:
2018/05/20 19:00
UKLU 201900Z 01002MPS 330V060 9999 NSC 19/06 Q1021 NOSIG
METAR:
2018/04/22 18:12
TAF TAF UKLU 221907Z 2218/2306 CNL